createdAt,value
2023-03-26T00:00:13.029Z,8.62
2023-03-26T00:02:42.257Z,8.62
2023-03-26T00:05:14.228Z,8.66
2023-03-26T00:07:43.969Z,8.71
2023-03-26T00:10:15.111Z,8.59
2023-03-26T00:12:43.982Z,8.63
2023-03-26T00:15:13.677Z,8.64
2023-03-26T00:17:46.254Z,8.62
2023-03-26T00:20:15.483Z,8.60
2023-03-26T00:22:45.292Z,8.75
2023-03-26T00:25:14.250Z,8.74
2023-03-26T00:27:45.152Z,8.70
2023-03-26T00:30:15.110Z,8.66
2023-03-26T00:32:44.146Z,8.49
2023-03-26T00:35:23.574Z,8.53
2023-03-26T00:37:53.067Z,8.68
2023-03-26T00:40:23.289Z,8.72
2023-03-26T00:42:52.091Z,8.72
2023-03-26T00:45:21.936Z,8.71
2023-03-26T00:47:51.269Z,8.73
2023-03-26T00:50:20.278Z,8.66
2023-03-26T00:52:49.056Z,8.67
2023-03-26T00:55:18.143Z,8.69
2023-03-26T00:57:46.965Z,8.70
2023-03-26T01:00:19.055Z,8.64
2023-03-26T01:02:48.229Z,8.70
2023-03-26T01:05:52.826Z,8.84
2023-03-26T01:08:28.623Z,8.77
2023-03-26T01:11:03.008Z,8.85
2023-03-26T01:13:34.156Z,8.85
2023-03-26T01:16:03.905Z,8.73
2023-03-26T01:18:40.469Z,8.61
2023-03-26T01:21:13.606Z,8.59
2023-03-26T01:23:48.526Z,8.63
2023-03-26T01:26:47.533Z,8.54
2023-03-26T01:29:21.977Z,8.55
2023-03-26T01:32:01.152Z,8.44
2023-03-26T01:34:41.502Z,8.32
2023-03-26T01:37:20.547Z,8.36
2023-03-26T01:39:56.742Z,8.27
2023-03-26T01:42:34.273Z,8.20
2023-03-26T01:45:10.667Z,8.16
2023-03-26T01:47:42.481Z,8.10
2023-03-26T01:50:12.145Z,8.06
2023-03-26T01:52:40.976Z,8.06
2023-03-26T01:55:11.432Z,8.00
2023-03-26T01:57:53.439Z,8.04
2023-03-26T02:00:29.843Z,8.01
2023-03-26T02:03:17.497Z,7.92
2023-03-26T02:05:53.960Z,7.90
2023-03-26T02:08:31.240Z,7.99
2023-03-26T02:11:04.006Z,7.98
2023-03-26T02:13:33.522Z,8.01
2023-03-26T02:16:05.035Z,8.06
2023-03-26T02:18:36.806Z,7.96
2023-03-26T02:21:10.602Z,8.06
2023-03-26T02:23:42.326Z,8.13
2023-03-26T02:26:11.964Z,8.09
2023-03-26T02:28:41.233Z,8.00
2023-03-26T02:31:10.731Z,7.94
2023-03-26T02:33:39.828Z,7.92
2023-03-26T02:36:10.371Z,7.91
2023-03-26T02:38:39.934Z,7.90
2023-03-26T02:41:08.988Z,7.88
2023-03-26T02:43:37.772Z,7.86
2023-03-26T02:46:07.051Z,7.91
2023-03-26T02:48:36.345Z,7.86
2023-03-26T02:51:06.373Z,7.93
2023-03-26T02:53:37.005Z,7.97
2023-03-26T02:56:07.764Z,7.90
2023-03-26T02:58:36.607Z,7.86
2023-03-26T03:01:06.220Z,7.81
2023-03-26T03:03:35.994Z,7.74
2023-03-26T03:06:05.501Z,7.85
2023-03-26T03:08:34.272Z,7.92
2023-03-26T03:11:07.391Z,7.78
2023-03-26T03:13:36.313Z,7.79
2023-03-26T03:16:06.463Z,7.81
2023-03-26T03:18:35.523Z,7.76
2023-03-26T03:21:05.345Z,7.80
2023-03-26T03:23:34.380Z,7.83
2023-03-26T03:26:03.362Z,7.83
2023-03-26T03:28:32.099Z,7.94
2023-03-26T03:31:20.480Z,7.93
2023-03-26T03:34:01.386Z,7.96
2023-03-26T03:36:52.993Z,8.04
2023-03-26T03:39:22.216Z,8.02
2023-03-26T03:41:51.110Z,8.02
2023-03-26T03:44:20.148Z,8.05
2023-03-26T03:46:53.584Z,8.06
2023-03-26T03:49:22.506Z,8.00
2023-03-26T03:51:51.333Z,8.09
2023-03-26T03:54:20.247Z,8.20
2023-03-26T03:56:49.163Z,8.32
2023-03-26T03:59:18.042Z,8.30
2023-03-26T04:01:48.072Z,8.25
2023-03-26T04:04:16.989Z,8.32
2023-03-26T04:06:45.860Z,8.39
2023-03-26T04:09:14.601Z,8.20
2023-03-26T04:11:43.322Z,8.09
2023-03-26T04:14:12.055Z,8.07
2023-03-26T04:16:40.780Z,8.08
2023-03-26T04:19:10.045Z,8.11
2023-03-26T04:21:38.907Z,8.23
2023-03-26T04:24:08.505Z,8.16
2023-03-26T04:26:37.478Z,8.08
2023-03-26T04:29:11.668Z,8.03
2023-03-26T04:31:42.660Z,8.15
2023-03-26T04:34:20.389Z,8.20
2023-03-26T04:36:49.264Z,8.16
2023-03-26T04:39:18.642Z,8.22
2023-03-26T04:41:47.618Z,8.19
2023-03-26T04:44:16.791Z,8.17
2023-03-26T04:46:45.708Z,8.21
2023-03-26T04:49:15.145Z,8.29
2023-03-26T04:51:45.970Z,8.30
2023-03-26T04:54:16.700Z,8.37
2023-03-26T04:56:50.781Z,8.34
2023-03-26T04:59:25.731Z,8.44
2023-03-26T05:01:54.988Z,8.42
2023-03-26T05:04:24.268Z,8.47
2023-03-26T05:06:53.167Z,8.36
2023-03-26T05:09:22.052Z,8.30
2023-03-26T05:11:51.482Z,8.23
2023-03-26T05:14:20.507Z,8.17
2023-03-26T05:16:50.721Z,8.05
2023-03-26T05:19:19.552Z,7.94
2023-03-26T05:21:48.447Z,7.89
2023-03-26T05:24:19.228Z,7.88
2023-03-26T05:26:48.094Z,7.88
2023-03-26T05:29:20.360Z,7.90
2023-03-26T05:31:49.279Z,7.88
2023-03-26T05:34:18.095Z,7.86
2023-03-26T05:36:48.175Z,7.82
2023-03-26T05:39:16.947Z,7.76
2023-03-26T05:41:45.803Z,7.68
2023-03-26T05:44:14.604Z,7.64
2023-03-26T05:46:43.421Z,7.62
2023-03-26T05:49:12.272Z,7.63
2023-03-26T05:51:41.186Z,7.61
2023-03-26T05:54:10.076Z,7.60
2023-03-26T05:56:39.052Z,7.55
2023-03-26T05:59:07.774Z,7.57
2023-03-26T06:01:36.565Z,7.75
2023-03-26T06:04:05.692Z,7.87
2023-03-26T06:06:34.432Z,7.88
2023-03-26T06:09:04.601Z,7.87
2023-03-26T06:11:34.404Z,7.94
2023-03-26T06:14:03.412Z,7.94
2023-03-26T06:16:32.465Z,8.01
2023-03-26T06:19:01.468Z,8.00
2023-03-26T06:21:31.002Z,7.96
2023-03-26T06:24:00.285Z,8.07
2023-03-26T06:26:29.269Z,8.40
2023-03-26T06:28:58.162Z,8.70
2023-03-26T06:31:27.102Z,8.90
2023-03-26T06:33:56.024Z,9.08
2023-03-26T06:36:24.856Z,9.24
2023-03-26T06:38:53.795Z,9.23
2023-03-26T06:41:22.848Z,9.18
2023-03-26T06:43:52.452Z,9.22
2023-03-26T06:46:23.119Z,9.36
2023-03-26T06:48:52.067Z,9.32
2023-03-26T06:51:21.061Z,9.30
2023-03-26T06:53:49.980Z,9.35
2023-03-26T06:56:19.059Z,9.60
2023-03-26T06:58:47.990Z,9.86
2023-03-26T07:01:17.268Z,9.97
2023-03-26T07:03:46.190Z,10.10
2023-03-26T07:06:15.030Z,10.11
2023-03-26T07:08:43.965Z,10.14
2023-03-26T07:11:12.894Z,10.21
2023-03-26T07:13:41.753Z,10.30
2023-03-26T07:16:11.323Z,10.39
2023-03-26T07:18:40.457Z,10.54
2023-03-26T07:21:12.877Z,10.51
2023-03-26T07:23:42.787Z,10.41
2023-03-26T07:26:27.036Z,10.38
2023-03-26T07:29:05.477Z,10.46
2023-03-26T07:31:44.933Z,10.53
2023-03-26T07:34:32.284Z,10.61
2023-03-26T07:37:10.796Z,10.75
2023-03-26T07:39:51.961Z,10.79
2023-03-26T07:42:48.596Z,10.71
2023-03-26T07:45:24.997Z,10.74
2023-03-26T07:47:56.753Z,10.81
2023-03-26T07:50:26.822Z,10.82
2023-03-26T07:52:57.274Z,10.86
2023-03-26T07:55:28.036Z,10.89
2023-03-26T07:58:15.034Z,10.80
2023-03-26T08:00:48.923Z,10.77
2023-03-26T08:03:39.090Z,10.79
2023-03-26T08:06:16.037Z,10.84
2023-03-26T08:08:52.962Z,10.90
2023-03-26T08:11:35.144Z,10.89
2023-03-26T08:14:21.315Z,10.93
2023-03-26T08:16:58.284Z,10.97
2023-03-26T08:19:42.875Z,10.98
2023-03-26T08:22:17.347Z,10.99
2023-03-26T08:25:02.538Z,11.07
2023-03-26T08:27:38.250Z,11.17
2023-03-26T08:30:14.850Z,11.27
2023-03-26T08:32:53.456Z,11.39
2023-03-26T08:35:22.581Z,11.46
2023-03-26T08:37:52.014Z,11.48
2023-03-26T08:40:36.111Z,11.58
2023-03-26T08:43:29.094Z,11.58
2023-03-26T08:46:26.834Z,11.63
2023-03-26T08:49:29.744Z,11.59
2023-03-26T08:52:28.742Z,11.51
2023-03-26T08:55:28.014Z,11.49
2023-03-26T08:58:46.244Z,11.48
2023-03-26T09:01:49.649Z,11.50
2023-03-26T09:05:02.746Z,11.31
2023-03-26T09:08:11.209Z,11.11
2023-03-26T09:11:02.890Z,11.14
2023-03-26T09:14:08.146Z,11.23
2023-03-26T09:17:15.540Z,11.29
2023-03-26T09:20:11.168Z,11.29
2023-03-26T09:23:18.088Z,11.24
2023-03-26T09:26:09.689Z,11.23
2023-03-26T09:29:13.006Z,11.24
2023-03-26T09:32:19.073Z,11.32
2023-03-26T09:35:12.593Z,11.51
2023-03-26T09:37:58.016Z,11.80
2023-03-26T09:40:37.404Z,11.93
2023-03-26T09:43:28.357Z,11.95
2023-03-26T09:46:13.429Z,12.01
2023-03-26T09:48:53.893Z,12.03
2023-03-26T09:51:46.630Z,12.09
2023-03-26T09:54:44.069Z,12.10
2023-03-26T09:57:24.021Z,12.22
2023-03-26T10:00:10.069Z,12.16
2023-03-26T10:02:59.025Z,12.07
2023-03-26T10:05:59.374Z,12.21
2023-03-26T10:08:48.882Z,12.29
2023-03-26T10:11:32.817Z,12.34
2023-03-26T10:14:09.803Z,12.48
2023-03-26T10:16:56.221Z,12.56
2023-03-26T10:19:45.899Z,12.81
2023-03-26T10:22:28.220Z,12.90
2023-03-26T10:25:17.074Z,12.92
2023-03-26T10:27:57.406Z,13.04
2023-03-26T10:30:49.107Z,13.21
2023-03-26T10:33:30.917Z,13.45
2023-03-26T10:36:21.280Z,13.56
2023-03-26T10:39:36.360Z,13.62
2023-03-26T10:42:15.966Z,13.73
2023-03-26T10:45:08.603Z,13.72
2023-03-26T10:47:51.737Z,13.59
2023-03-26T10:50:37.065Z,13.69
2023-03-26T10:53:12.901Z,13.83
2023-03-26T10:55:46.237Z,13.73
2023-03-26T10:58:23.705Z,13.59
2023-03-26T11:01:00.187Z,13.49
2023-03-26T11:03:43.942Z,13.37
2023-03-26T11:06:25.234Z,13.31
2023-03-26T11:09:02.135Z,13.24
2023-03-26T11:11:41.647Z,13.08
2023-03-26T11:14:31.806Z,12.96
2023-03-26T11:17:14.860Z,13.06
2023-03-26T11:20:07.822Z,13.04
2023-03-26T11:22:44.404Z,13.01
2023-03-26T11:25:47.874Z,12.99
2023-03-26T11:28:40.478Z,12.88
2023-03-26T11:31:20.024Z,12.73
2023-03-26T11:33:54.141Z,12.79
2023-03-26T11:36:29.313Z,12.75
2023-03-26T11:39:02.343Z,12.68
2023-03-26T11:41:32.382Z,12.61
2023-03-26T11:44:05.064Z,12.49
2023-03-26T11:46:39.362Z,12.34
2023-03-26T11:49:13.076Z,12.26
2023-03-26T11:51:44.669Z,12.30
2023-03-26T11:54:16.322Z,12.23
2023-03-26T11:57:05.595Z,12.23
2023-03-26T11:59:53.078Z,12.31
2023-03-26T12:02:33.689Z,12.38
2023-03-26T12:05:15.511Z,12.46
2023-03-26T12:08:02.582Z,12.38
2023-03-26T12:10:37.288Z,12.51
2023-03-26T12:13:17.130Z,12.62
2023-03-26T12:15:46.175Z,12.71
2023-03-26T12:18:27.352Z,12.82
2023-03-26T12:21:08.512Z,13.08
2023-03-26T12:23:53.656Z,13.30
2023-03-26T12:26:33.818Z,13.31
2023-03-26T12:29:10.207Z,13.36
2023-03-26T12:31:55.833Z,13.12
2023-03-26T12:34:30.292Z,12.66
2023-03-26T12:37:00.727Z,12.27
2023-03-26T12:40:09.177Z,11.91
2023-03-26T12:44:50.126Z,11.52
2023-03-26T12:45:23.809Z,11.29
2023-03-26T12:48:04.052Z,11.22
2023-03-26T12:50:54.411Z,11.13
2023-03-26T12:53:38.212Z,11.12
2023-03-26T12:56:22.118Z,11.06
2023-03-26T12:59:15.385Z,11.07
2023-03-26T13:01:55.010Z,11.23
2023-03-26T13:05:05.671Z,11.38
2023-03-26T13:07:53.138Z,11.61
2023-03-26T13:10:49.287Z,11.75
2023-03-26T13:13:52.414Z,11.85
2023-03-26T13:16:33.483Z,11.94
2023-03-26T13:19:10.453Z,12.17
2023-03-26T13:21:56.499Z,12.18
2023-03-26T13:24:38.947Z,12.12
2023-03-26T13:27:18.656Z,12.15
2023-03-26T13:29:57.672Z,12.14
2023-03-26T13:32:37.195Z,12.21
2023-03-26T13:35:19.895Z,12.19
2023-03-26T13:37:55.583Z,12.19
2023-03-26T13:40:32.556Z,12.30
2023-03-26T13:43:16.472Z,12.47
2023-03-26T13:45:55.740Z,12.57
2023-03-26T13:48:29.457Z,12.67
2023-03-26T13:51:06.534Z,12.69
2023-03-26T13:53:45.084Z,12.71
2023-03-26T13:56:18.252Z,12.86
2023-03-26T13:58:53.497Z,12.73
2023-03-26T14:01:34.663Z,12.71
2023-03-26T14:04:10.997Z,12.85
2023-03-26T14:06:54.144Z,12.87
2023-03-26T14:09:29.145Z,12.93
2023-03-26T14:12:21.421Z,12.86
2023-03-26T14:14:57.102Z,13.02
2023-03-26T14:17:31.187Z,13.01
2023-03-26T14:20:40.080Z,13.07
2023-03-26T14:23:35.789Z,13.08
2023-03-26T14:26:21.700Z,13.13
2023-03-26T14:29:23.746Z,13.11
2023-03-26T14:32:05.444Z,13.24
2023-03-26T14:34:59.185Z,13.16
2023-03-26T14:38:05.158Z,13.01
2023-03-26T14:40:56.750Z,12.97
2023-03-26T14:43:50.446Z,12.84
2023-03-26T14:46:36.278Z,12.73
2023-03-26T14:49:38.592Z,12.65
2023-03-26T14:52:22.074Z,12.60
2023-03-26T14:54:58.721Z,12.55
2023-03-26T14:58:15.203Z,12.57
2023-03-26T15:01:24.603Z,12.59
2023-03-26T15:04:28.388Z,12.75
2023-03-26T15:07:33.613Z,12.70
2023-03-26T15:10:46.992Z,12.62
2023-03-26T15:13:40.370Z,12.63
2023-03-26T15:16:39.356Z,12.62
2023-03-26T15:19:47.910Z,12.85
2023-03-26T15:23:02.686Z,13.01
2023-03-26T15:26:12.715Z,13.06
2023-03-26T15:29:08.103Z,13.00
2023-03-26T15:32:07.904Z,12.87
2023-03-26T15:35:12.044Z,12.81
2023-03-26T15:38:01.549Z,12.75
2023-03-26T15:40:47.700Z,12.60
2023-03-26T15:43:20.116Z,12.45
2023-03-26T15:45:58.515Z,12.35
2023-03-26T15:48:47.301Z,12.38
2023-03-26T15:51:46.475Z,12.43
2023-03-26T15:54:29.139Z,12.31
2023-03-26T15:57:08.473Z,12.32
2023-03-26T15:59:49.723Z,12.25
2023-03-26T16:02:31.063Z,12.14
2023-03-26T16:05:20.887Z,12.18
2023-03-26T16:08:04.417Z,12.16
2023-03-26T16:10:44.914Z,12.13
2023-03-26T16:13:34.456Z,12.15
2023-03-26T16:16:22.698Z,12.21
2023-03-26T16:19:39.100Z,12.10
2023-03-26T16:22:15.010Z,12.00
2023-03-26T16:25:26.771Z,12.05
2023-03-26T16:28:34.478Z,12.11
2023-03-26T16:31:37.993Z,12.05
2023-03-26T16:34:41.578Z,12.02
2023-03-26T16:37:36.834Z,11.89
2023-03-26T16:40:50.815Z,11.83
2023-03-26T16:43:52.030Z,11.86
2023-03-26T16:46:33.441Z,11.68
2023-03-26T16:49:17.343Z,11.62
2023-03-26T16:52:13.323Z,11.57
2023-03-26T16:54:51.450Z,11.50
2023-03-26T16:57:39.896Z,11.43
2023-03-26T17:00:40.950Z,11.30
2023-03-26T17:03:28.001Z,11.24
2023-03-26T17:06:27.950Z,11.27
2023-03-26T17:09:18.024Z,11.29
2023-03-26T17:12:02.665Z,11.15
2023-03-26T17:14:49.394Z,11.01
2023-03-26T17:17:33.082Z,10.95
2023-03-26T17:20:12.446Z,10.90
2023-03-26T17:22:48.066Z,10.78
2023-03-26T17:25:32.564Z,10.67
2023-03-26T17:28:24.391Z,10.65
2023-03-26T17:31:03.633Z,10.78
2023-03-26T17:33:37.044Z,10.71
2023-03-26T17:36:44.578Z,10.52
2023-03-26T17:40:13.004Z,10.46
2023-03-26T17:43:05.790Z,10.52
2023-03-26T17:45:44.173Z,10.49
2023-03-26T17:48:48.735Z,10.47
2023-03-26T17:51:42.775Z,10.32
2023-03-26T17:54:22.207Z,10.18
2023-03-26T17:56:59.226Z,10.10
2023-03-26T17:59:43.263Z,10.07
2023-03-26T18:02:20.373Z,9.96
2023-03-26T18:05:09.191Z,9.97
2023-03-26T18:08:21.843Z,9.90
2023-03-26T18:11:08.680Z,9.86
2023-03-26T18:14:07.286Z,9.86
2023-03-26T18:16:44.485Z,9.84
2023-03-26T18:19:23.445Z,9.70
2023-03-26T18:21:58.296Z,9.62
2023-03-26T18:24:35.173Z,9.52
2023-03-26T18:27:13.789Z,9.43
2023-03-26T18:29:48.294Z,9.42
2023-03-26T18:32:28.240Z,9.44
2023-03-26T18:35:02.447Z,9.35
2023-03-26T18:37:39.331Z,9.27
2023-03-26T18:40:16.975Z,9.26
2023-03-26T18:42:56.681Z,9.17
2023-03-26T18:45:32.356Z,9.23
2023-03-26T18:48:10.421Z,9.16
2023-03-26T18:50:43.291Z,9.11
2023-03-26T18:53:21.320Z,9.17
2023-03-26T18:55:54.754Z,9.24
2023-03-26T18:58:35.333Z,9.12
2023-03-26T19:01:20.077Z,8.93
2023-03-26T19:03:58.473Z,8.84
2023-03-26T19:06:36.217Z,8.73
2023-03-26T19:09:28.629Z,8.60
2023-03-26T19:12:08.968Z,8.56
2023-03-26T19:14:57.314Z,8.62
2023-03-26T19:17:32.655Z,8.58
2023-03-26T19:20:07.901Z,8.50
2023-03-26T19:22:43.716Z,8.44
2023-03-26T19:25:23.839Z,8.36
2023-03-26T19:27:56.087Z,8.28
2023-03-26T19:30:30.886Z,8.32
2023-03-26T19:33:19.420Z,8.25
2023-03-26T19:36:03.627Z,8.22
2023-03-26T19:38:46.044Z,8.17
2023-03-26T19:41:23.084Z,8.31
2023-03-26T19:44:01.074Z,8.40
2023-03-26T19:46:53.887Z,8.45
2023-03-26T19:49:33.561Z,8.50
2023-03-26T19:52:38.635Z,8.65
2023-03-26T19:55:20.009Z,8.37
2023-03-26T19:57:54.100Z,8.13
2023-03-26T20:00:27.405Z,7.91
2023-03-26T20:02:59.293Z,7.78
2023-03-26T20:05:35.856Z,7.85
2023-03-26T20:08:15.502Z,7.85
2023-03-26T20:10:46.513Z,7.74
2023-03-26T20:13:20.732Z,7.65
2023-03-26T20:16:05.619Z,7.68
2023-03-26T20:18:40.530Z,7.61
2023-03-26T20:21:13.379Z,7.59
2023-03-26T20:23:45.970Z,7.53
2023-03-26T20:26:18.785Z,7.46
2023-03-26T20:28:53.533Z,7.35
2023-03-26T20:31:26.935Z,7.30
2023-03-26T20:33:59.121Z,7.23
2023-03-26T20:36:36.892Z,7.21
2023-03-26T20:39:07.518Z,7.26
2023-03-26T20:41:45.016Z,7.21
2023-03-26T20:44:17.844Z,7.25
2023-03-26T20:46:50.649Z,7.27
2023-03-26T20:49:22.404Z,7.19
2023-03-26T20:51:53.090Z,7.20
2023-03-26T20:54:23.926Z,7.29
2023-03-26T20:56:54.766Z,7.25
2023-03-26T20:59:27.268Z,7.32
2023-03-26T21:01:58.778Z,7.31
2023-03-26T21:04:29.177Z,7.31
2023-03-26T21:07:07.270Z,7.35
2023-03-26T21:09:46.418Z,7.37
2023-03-26T21:12:23.585Z,7.32
2023-03-26T21:14:55.756Z,7.32
2023-03-26T21:17:26.695Z,7.48
2023-03-26T21:20:00.166Z,7.54
2023-03-26T21:22:36.364Z,7.57
2023-03-26T21:25:16.839Z,7.57
2023-03-26T21:27:55.826Z,7.57
2023-03-26T21:30:25.821Z,7.63
2023-03-26T21:32:54.983Z,7.62
2023-03-26T21:35:25.417Z,7.53
2023-03-26T21:37:57.284Z,7.53
2023-03-26T21:40:27.876Z,7.55
2023-03-26T21:42:58.249Z,7.51
2023-03-26T21:45:28.897Z,7.51
2023-03-26T21:47:58.781Z,7.46
2023-03-26T21:50:28.879Z,7.37
2023-03-26T21:52:59.206Z,7.38
2023-03-26T21:55:35.045Z,7.38
2023-03-26T21:58:21.982Z,7.34
2023-03-26T22:01:05.991Z,7.44
2023-03-26T22:03:47.619Z,7.47
2023-03-26T22:06:22.067Z,7.56
2023-03-26T22:08:51.732Z,7.58
2023-03-26T22:11:20.579Z,7.61
2023-03-26T22:13:49.535Z,7.56
2023-03-26T22:16:18.428Z,7.56
2023-03-26T22:18:47.338Z,7.54
2023-03-26T22:21:16.141Z,7.64
2023-03-26T22:23:52.583Z,7.65
2023-03-26T22:26:22.814Z,7.62
2023-03-26T22:28:52.760Z,7.64
2023-03-26T22:31:24.355Z,7.64
2023-03-26T22:33:53.857Z,7.57
2023-03-26T22:36:24.796Z,7.51
2023-03-26T22:38:54.797Z,7.50
2023-03-26T22:41:24.602Z,7.47
2023-03-26T22:43:54.912Z,7.43
2023-03-26T22:46:24.769Z,7.41
2023-03-26T22:48:54.505Z,7.49
2023-03-26T22:51:23.380Z,7.53
2023-03-26T22:53:52.179Z,7.43
2023-03-26T22:56:21.318Z,7.40
2023-03-26T22:58:50.459Z,7.54
2023-03-26T23:01:21.377Z,7.64
2023-03-26T23:03:50.910Z,7.68
2023-03-26T23:06:20.830Z,7.80
2023-03-26T23:08:49.631Z,7.82
2023-03-26T23:11:21.462Z,7.78
2023-03-26T23:13:50.767Z,7.74
2023-03-26T23:16:20.951Z,7.73
2023-03-26T23:18:49.832Z,7.62
2023-03-26T23:21:20.765Z,7.71
2023-03-26T23:23:51.237Z,7.70
2023-03-26T23:26:19.918Z,7.72
2023-03-26T23:28:50.832Z,7.63
2023-03-26T23:31:19.847Z,7.56
2023-03-26T23:33:49.787Z,7.54
2023-03-26T23:36:20.331Z,7.57
2023-03-26T23:38:50.394Z,7.60
2023-03-26T23:41:21.017Z,7.63
2023-03-26T23:43:53.694Z,7.70
2023-03-26T23:46:25.180Z,7.58
2023-03-26T23:48:54.728Z,7.63
2023-03-26T23:51:23.655Z,7.64
2023-03-26T23:53:53.023Z,7.53
2023-03-26T23:56:22.207Z,7.51
2023-03-26T23:58:51.369Z,7.51
